sensor_id;sensor_type;location;lat;lon;timestamp;P1;durP1;ratioP1;P2;durP2;ratioP2
11187;SDS011;5650;52.700;7.306;2023-10-19T00:00:54;38.03;;;25.63;;
11187;SDS011;5650;52.700;7.306;2023-10-19T00:03:22;38.75;;;27.25;;
11187;SDS011;5650;52.700;7.306;2023-10-19T00:05:53;36.40;;;28.10;;
11187;SDS011;5650;52.700;7.306;2023-10-19T00:08:21;38.40;;;26.52;;
11187;SDS011;5650;52.700;7.306;2023-10-19T00:10:49;36.08;;;27.55;;
11187;SDS011;5650;52.700;7.306;2023-10-19T00:13:28;39.65;;;27.77;;
11187;SDS011;5650;52.700;7.306;2023-10-19T00:15:55;43.65;;;28.80;;
11187;SDS011;5650;52.700;7.306;2023-10-19T00:18:24;42.50;;;27.52;;
11187;SDS011;5650;52.700;7.306;2023-10-19T00:20:57;45.05;;;28.95;;
11187;SDS011;5650;52.700;7.306;2023-10-19T00:23:25;41.33;;;29.35;;
11187;SDS011;5650;52.700;7.306;2023-10-19T00:25:57;43.83;;;28.95;;
11187;SDS011;5650;52.700;7.306;2023-10-19T00:28:23;40.67;;;29.02;;
11187;SDS011;5650;52.700;7.306;2023-10-19T00:30:53;38.70;;;28.50;;
11187;SDS011;5650;52.700;7.306;2023-10-19T00:33:25;41.03;;;29.42;;
11187;SDS011;5650;52.700;7.306;2023-10-19T00:36:06;43.33;;;30.42;;
11187;SDS011;5650;52.700;7.306;2023-10-19T00:38:38;47.30;;;31.20;;
11187;SDS011;5650;52.700;7.306;2023-10-19T00:41:07;43.88;;;31.25;;
11187;SDS011;5650;52.700;7.306;2023-10-19T00:43:39;43.35;;;31.90;;
11187;SDS011;5650;52.700;7.306;2023-10-19T00:46:14;41.10;;;30.15;;
11187;SDS011;5650;52.700;7.306;2023-10-19T00:48:51;45.03;;;30.02;;
11187;SDS011;5650;52.700;7.306;2023-10-19T00:51:24;43.50;;;30.92;;
11187;SDS011;5650;52.700;7.306;2023-10-19T00:54:06;45.22;;;31.27;;
11187;SDS011;5650;52.700;7.306;2023-10-19T00:56:41;42.28;;;30.35;;
11187;SDS011;5650;52.700;7.306;2023-10-19T00:59:13;47.30;;;32.63;;
11187;SDS011;5650;52.700;7.306;2023-10-19T01:01:46;45.67;;;31.92;;
11187;SDS011;5650;52.700;7.306;2023-10-19T01:04:21;45.22;;;31.08;;
11187;SDS011;5650;52.700;7.306;2023-10-19T01:06:57;46.90;;;31.80;;
11187;SDS011;5650;52.700;7.306;2023-10-19T01:09:33;45.13;;;30.95;;
11187;SDS011;5650;52.700;7.306;2023-10-19T01:12:01;44.33;;;31.23;;
11187;SDS011;5650;52.700;7.306;2023-10-19T01:14:50;51.10;;;31.92;;
11187;SDS011;5650;52.700;7.306;2023-10-19T01:17:33;46.45;;;32.13;;
11187;SDS011;5650;52.700;7.306;2023-10-19T01:20:07;45.85;;;30.75;;
11187;SDS011;5650;52.700;7.306;2023-10-19T01:22:57;43.50;;;32.45;;
11187;SDS011;5650;52.700;7.306;2023-10-19T01:25:52;47.50;;;31.63;;
11187;SDS011;5650;52.700;7.306;2023-10-19T01:28:33;46.80;;;31.55;;
11187;SDS011;5650;52.700;7.306;2023-10-19T01:31:17;48.63;;;33.60;;
11187;SDS011;5650;52.700;7.306;2023-10-19T01:33:56;50.38;;;33.50;;
11187;SDS011;5650;52.700;7.306;2023-10-19T01:36:24;52.40;;;33.85;;
11187;SDS011;5650;52.700;7.306;2023-10-19T01:38:54;52.85;;;35.13;;
11187;SDS011;5650;52.700;7.306;2023-10-19T01:41:23;49.72;;;34.08;;
11187;SDS011;5650;52.700;7.306;2023-10-19T01:43:52;51.35;;;34.85;;
11187;SDS011;5650;52.700;7.306;2023-10-19T01:46:19;49.40;;;32.88;;
11187;SDS011;5650;52.700;7.306;2023-10-19T01:48:51;51.13;;;33.38;;
11187;SDS011;5650;52.700;7.306;2023-10-19T01:51:21;51.75;;;34.33;;
11187;SDS011;5650;52.700;7.306;2023-10-19T01:53:53;44.80;;;32.58;;
11187;SDS011;5650;52.700;7.306;2023-10-19T01:56:20;53.92;;;35.50;;
11187;SDS011;5650;52.700;7.306;2023-10-19T01:58:51;51.20;;;33.22;;
11187;SDS011;5650;52.700;7.306;2023-10-19T02:01:22;51.63;;;35.67;;
11187;SDS011;5650;52.700;7.306;2023-10-19T02:03:58;50.42;;;34.88;;
11187;SDS011;5650;52.700;7.306;2023-10-19T02:06:31;49.38;;;32.30;;
11187;SDS011;5650;52.700;7.306;2023-10-19T02:09:03;53.63;;;34.72;;
11187;SDS011;5650;52.700;7.306;2023-10-19T02:11:45;47.25;;;33.58;;
11187;SDS011;5650;52.700;7.306;2023-10-19T02:14:13;50.40;;;34.53;;
11187;SDS011;5650;52.700;7.306;2023-10-19T02:16:41;49.00;;;34.47;;
11187;SDS011;5650;52.700;7.306;2023-10-19T02:19:08;48.65;;;34.70;;
11187;SDS011;5650;52.700;7.306;2023-10-19T02:21:38;48.33;;;34.45;;
11187;SDS011;5650;52.700;7.306;2023-10-19T02:24:07;53.63;;;36.72;;
11187;SDS011;5650;52.700;7.306;2023-10-19T02:26:36;51.13;;;34.88;;
11187;SDS011;5650;52.700;7.306;2023-10-19T02:29:03;59.90;;;36.03;;
11187;SDS011;5650;52.700;7.306;2023-10-19T02:31:33;55.70;;;36.20;;
11187;SDS011;5650;52.700;7.306;2023-10-19T02:33:59;50.75;;;33.85;;
11187;SDS011;5650;52.700;7.306;2023-10-19T02:36:26;47.58;;;33.08;;
11187;SDS011;5650;52.700;7.306;2023-10-19T02:38:54;47.08;;;32.40;;
11187;SDS011;5650;52.700;7.306;2023-10-19T02:41:25;44.15;;;31.55;;
11187;SDS011;5650;52.700;7.306;2023-10-19T02:43:55;47.85;;;33.00;;
11187;SDS011;5650;52.700;7.306;2023-10-19T02:46:32;45.15;;;32.08;;
11187;SDS011;5650;52.700;7.306;2023-10-19T02:49:00;45.58;;;31.08;;
11187;SDS011;5650;52.700;7.306;2023-10-19T02:51:38;45.60;;;31.17;;
11187;SDS011;5650;52.700;7.306;2023-10-19T02:54:10;44.47;;;31.60;;
11187;SDS011;5650;52.700;7.306;2023-10-19T02:56:44;40.88;;;29.30;;
11187;SDS011;5650;52.700;7.306;2023-10-19T02:59:18;42.42;;;29.98;;
11187;SDS011;5650;52.700;7.306;2023-10-19T03:01:47;42.55;;;29.85;;
11187;SDS011;5650;52.700;7.306;2023-10-19T03:04:16;45.72;;;30.30;;
11187;SDS011;5650;52.700;7.306;2023-10-19T03:06:43;42.47;;;30.65;;
11187;SDS011;5650;52.700;7.306;2023-10-19T03:09:12;44.80;;;30.25;;
11187;SDS011;5650;52.700;7.306;2023-10-19T03:11:49;44.58;;;29.45;;
11187;SDS011;5650;52.700;7.306;2023-10-19T03:14:18;40.95;;;28.30;;
11187;SDS011;5650;52.700;7.306;2023-10-19T03:16:50;38.25;;;28.05;;
11187;SDS011;5650;52.700;7.306;2023-10-19T03:19:16;40.30;;;28.42;;
11187;SDS011;5650;52.700;7.306;2023-10-19T03:21:47;37.47;;;26.45;;
11187;SDS011;5650;52.700;7.306;2023-10-19T03:24:14;41.42;;;26.55;;
11187;SDS011;5650;52.700;7.306;2023-10-19T03:27:02;39.53;;;26.52;;
11187;SDS011;5650;52.700;7.306;2023-10-19T03:29:36;35.45;;;26.25;;
11187;SDS011;5650;52.700;7.306;2023-10-19T03:32:05;37.70;;;25.63;;
11187;SDS011;5650;52.700;7.306;2023-10-19T03:34:34;36.25;;;24.85;;
11187;SDS011;5650;52.700;7.306;2023-10-19T03:37:02;33.83;;;24.17;;
11187;SDS011;5650;52.700;7.306;2023-10-19T03:39:37;31.58;;;23.00;;
11187;SDS011;5650;52.700;7.306;2023-10-19T03:44:57;28.52;;;20.92;;
11187;SDS011;5650;52.700;7.306;2023-10-19T03:47:27;30.88;;;21.17;;
11187;SDS011;5650;52.700;7.306;2023-10-19T03:50:00;26.23;;;20.63;;
11187;SDS011;5650;52.700;7.306;2023-10-19T03:52:31;28.55;;;20.45;;
11187;SDS011;5650;52.700;7.306;2023-10-19T03:55:01;28.05;;;20.60;;
11187;SDS011;5650;52.700;7.306;2023-10-19T03:57:32;28.08;;;19.70;;
11187;SDS011;5650;52.700;7.306;2023-10-19T04:00:00;29.13;;;19.52;;
11187;SDS011;5650;52.700;7.306;2023-10-19T04:02:40;27.05;;;19.85;;
11187;SDS011;5650;52.700;7.306;2023-10-19T04:05:10;26.80;;;19.83;;
11187;SDS011;5650;52.700;7.306;2023-10-19T04:07:41;24.15;;;18.75;;
11187;SDS011;5650;52.700;7.306;2023-10-19T04:10:11;26.75;;;19.95;;
11187;SDS011;5650;52.700;7.306;2023-10-19T04:12:56;28.45;;;19.20;;
11187;SDS011;5650;52.700;7.306;2023-10-19T04:15:40;28.02;;;21.45;;
11187;SDS011;5650;52.700;7.306;2023-10-19T04:18:08;25.10;;;18.92;;
11187;SDS011;5650;52.700;7.306;2023-10-19T04:20:38;27.10;;;19.75;;
11187;SDS011;5650;52.700;7.306;2023-10-19T04:23:20;29.17;;;19.08;;
11187;SDS011;5650;52.700;7.306;2023-10-19T04:25:47;29.67;;;20.33;;
11187;SDS011;5650;52.700;7.306;2023-10-19T04:28:14;27.88;;;20.35;;
11187;SDS011;5650;52.700;7.306;2023-10-19T04:30:47;27.05;;;19.90;;
11187;SDS011;5650;52.700;7.306;2023-10-19T04:33:14;28.13;;;20.15;;
11187;SDS011;5650;52.700;7.306;2023-10-19T04:35:44;30.85;;;20.75;;
11187;SDS011;5650;52.700;7.306;2023-10-19T04:38:13;27.90;;;19.73;;
11187;SDS011;5650;52.700;7.306;2023-10-19T04:40:45;29.80;;;20.45;;
11187;SDS011;5650;52.700;7.306;2023-10-19T04:43:13;29.52;;;19.42;;
11187;SDS011;5650;52.700;7.306;2023-10-19T04:45:41;24.67;;;18.05;;
11187;SDS011;5650;52.700;7.306;2023-10-19T04:48:11;26.73;;;19.52;;
11187;SDS011;5650;52.700;7.306;2023-10-19T04:50:38;25.80;;;19.33;;
11187;SDS011;5650;52.700;7.306;2023-10-19T04:53:07;24.80;;;18.38;;
11187;SDS011;5650;52.700;7.306;2023-10-19T04:55:34;23.75;;;18.40;;
11187;SDS011;5650;52.700;7.306;2023-10-19T04:58:03;23.05;;;17.08;;
11187;SDS011;5650;52.700;7.306;2023-10-19T05:00:31;22.77;;;17.17;;
11187;SDS011;5650;52.700;7.306;2023-10-19T05:02:58;20.25;;;16.20;;
11187;SDS011;5650;52.700;7.306;2023-10-19T05:05:28;22.77;;;17.25;;
11187;SDS011;5650;52.700;7.306;2023-10-19T05:07:55;22.65;;;17.77;;
11187;SDS011;5650;52.700;7.306;2023-10-19T05:10:24;20.00;;;15.55;;
11187;SDS011;5650;52.700;7.306;2023-10-19T05:12:55;22.38;;;15.98;;
11187;SDS011;5650;52.700;7.306;2023-10-19T05:15:24;20.48;;;15.65;;
11187;SDS011;5650;52.700;7.306;2023-10-19T05:17:51;25.88;;;15.60;;
11187;SDS011;5650;52.700;7.306;2023-10-19T05:20:21;19.67;;;15.68;;
11187;SDS011;5650;52.700;7.306;2023-10-19T05:22:53;21.15;;;16.00;;
11187;SDS011;5650;52.700;7.306;2023-10-19T05:25:25;21.92;;;15.82;;
11187;SDS011;5650;52.700;7.306;2023-10-19T05:27:53;18.17;;;14.52;;
11187;SDS011;5650;52.700;7.306;2023-10-19T05:30:20;17.95;;;14.55;;
11187;SDS011;5650;52.700;7.306;2023-10-19T05:32:48;21.00;;;15.85;;
11187;SDS011;5650;52.700;7.306;2023-10-19T05:35:26;18.85;;;15.05;;
11187;SDS011;5650;52.700;7.306;2023-10-19T05:37:55;20.40;;;15.52;;
11187;SDS011;5650;52.700;7.306;2023-10-19T05:40:23;18.05;;;15.02;;
11187;SDS011;5650;52.700;7.306;2023-10-19T05:42:55;17.58;;;14.52;;
11187;SDS011;5650;52.700;7.306;2023-10-19T05:45:26;18.40;;;15.18;;
11187;SDS011;5650;52.700;7.306;2023-10-19T05:47:54;18.20;;;15.27;;
11187;SDS011;5650;52.700;7.306;2023-10-19T05:50:23;17.50;;;14.50;;
11187;SDS011;5650;52.700;7.306;2023-10-19T05:52:50;18.15;;;14.38;;
11187;SDS011;5650;52.700;7.306;2023-10-19T05:55:20;15.00;;;13.40;;
11187;SDS011;5650;52.700;7.306;2023-10-19T05:57:52;19.48;;;15.00;;
11187;SDS011;5650;52.700;7.306;2023-10-19T06:00:23;18.05;;;14.68;;
11187;SDS011;5650;52.700;7.306;2023-10-19T06:02:53;18.10;;;14.27;;
11187;SDS011;5650;52.700;7.306;2023-10-19T06:05:20;18.45;;;14.07;;
11187;SDS011;5650;52.700;7.306;2023-10-19T06:07:56;17.85;;;14.65;;
11187;SDS011;5650;52.700;7.306;2023-10-19T06:10:26;18.88;;;15.05;;
11187;SDS011;5650;52.700;7.306;2023-10-19T06:12:55;16.73;;;13.43;;
11187;SDS011;5650;52.700;7.306;2023-10-19T06:15:23;19.00;;;14.50;;
11187;SDS011;5650;52.700;7.306;2023-10-19T06:17:50;18.92;;;14.95;;
11187;SDS011;5650;52.700;7.306;2023-10-19T06:20:18;18.63;;;14.13;;
11187;SDS011;5650;52.700;7.306;2023-10-19T06:22:52;16.65;;;13.55;;
11187;SDS011;5650;52.700;7.306;2023-10-19T06:25:21;18.08;;;14.15;;
11187;SDS011;5650;52.700;7.306;2023-10-19T06:27:52;17.63;;;14.38;;
11187;SDS011;5650;52.700;7.306;2023-10-19T06:30:22;16.13;;;13.55;;
11187;SDS011;5650;52.700;7.306;2023-10-19T06:32:55;15.15;;;13.30;;
11187;SDS011;5650;52.700;7.306;2023-10-19T06:35:29;18.00;;;13.05;;
11187;SDS011;5650;52.700;7.306;2023-10-19T06:37:58;17.88;;;14.50;;
11187;SDS011;5650;52.700;7.306;2023-10-19T06:40:26;17.73;;;14.07;;
11187;SDS011;5650;52.700;7.306;2023-10-19T06:42:56;16.42;;;13.50;;
11187;SDS011;5650;52.700;7.306;2023-10-19T06:45:24;16.45;;;13.45;;
11187;SDS011;5650;52.700;7.306;2023-10-19T06:47:55;16.35;;;13.70;;
11187;SDS011;5650;52.700;7.306;2023-10-19T06:50:23;16.17;;;13.60;;
11187;SDS011;5650;52.700;7.306;2023-10-19T06:52:51;15.95;;;13.48;;
11187;SDS011;5650;52.700;7.306;2023-10-19T06:55:28;16.92;;;13.73;;
11187;SDS011;5650;52.700;7.306;2023-10-19T06:57:57;15.38;;;13.30;;
11187;SDS011;5650;52.700;7.306;2023-10-19T07:00:27;15.23;;;13.43;;
11187;SDS011;5650;52.700;7.306;2023-10-19T07:02:55;16.02;;;13.25;;
11187;SDS011;5650;52.700;7.306;2023-10-19T07:05:33;16.10;;;13.35;;
11187;SDS011;5650;52.700;7.306;2023-10-19T07:08:01;14.90;;;12.40;;
11187;SDS011;5650;52.700;7.306;2023-10-19T07:10:32;14.95;;;12.55;;
11187;SDS011;5650;52.700;7.306;2023-10-19T07:13:01;16.38;;;12.80;;
11187;SDS011;5650;52.700;7.306;2023-10-19T07:15:29;15.73;;;12.95;;
11187;SDS011;5650;52.700;7.306;2023-10-19T07:17:56;13.30;;;11.10;;
11187;SDS011;5650;52.700;7.306;2023-10-19T07:20:34;14.52;;;12.50;;
11187;SDS011;5650;52.700;7.306;2023-10-19T07:23:04;15.00;;;11.75;;
11187;SDS011;5650;52.700;7.306;2023-10-19T07:25:35;13.13;;;11.75;;
11187;SDS011;5650;52.700;7.306;2023-10-19T07:28:13;14.25;;;12.48;;
11187;SDS011;5650;52.700;7.306;2023-10-19T07:30:41;13.77;;;12.30;;
11187;SDS011;5650;52.700;7.306;2023-10-19T07:33:10;14.05;;;12.45;;
11187;SDS011;5650;52.700;7.306;2023-10-19T07:35:42;14.05;;;12.48;;
11187;SDS011;5650;52.700;7.306;2023-10-19T07:38:13;14.52;;;11.90;;
11187;SDS011;5650;52.700;7.306;2023-10-19T07:40:42;13.88;;;12.35;;
11187;SDS011;5650;52.700;7.306;2023-10-19T07:43:13;14.20;;;12.75;;
11187;SDS011;5650;52.700;7.306;2023-10-19T07:45:41;15.73;;;12.95;;
11187;SDS011;5650;52.700;7.306;2023-10-19T07:48:15;14.65;;;13.00;;
11187;SDS011;5650;52.700;7.306;2023-10-19T07:50:42;16.33;;;12.70;;
11187;SDS011;5650;52.700;7.306;2023-10-19T07:53:10;14.40;;;12.27;;
11187;SDS011;5650;52.700;7.306;2023-10-19T07:55:37;14.95;;;13.35;;
11187;SDS011;5650;52.700;7.306;2023-10-19T07:58:05;14.85;;;13.25;;
11187;SDS011;5650;52.700;7.306;2023-10-19T08:00:48;17.05;;;13.98;;
11187;SDS011;5650;52.700;7.306;2023-10-19T08:03:15;14.18;;;12.55;;
11187;SDS011;5650;52.700;7.306;2023-10-19T08:05:44;16.42;;;14.13;;
11187;SDS011;5650;52.700;7.306;2023-10-19T08:08:11;16.02;;;13.52;;
11187;SDS011;5650;52.700;7.306;2023-10-19T08:10:39;16.50;;;13.70;;
11187;SDS011;5650;52.700;7.306;2023-10-19T08:13:06;16.35;;;14.10;;
11187;SDS011;5650;52.700;7.306;2023-10-19T08:15:33;16.88;;;13.02;;
11187;SDS011;5650;52.700;7.306;2023-10-19T08:18:04;18.10;;;14.43;;
11187;SDS011;5650;52.700;7.306;2023-10-19T08:20:32;20.00;;;14.88;;
11187;SDS011;5650;52.700;7.306;2023-10-19T08:23:05;15.07;;;13.40;;
11187;SDS011;5650;52.700;7.306;2023-10-19T08:25:37;16.95;;;13.90;;
11187;SDS011;5650;52.700;7.306;2023-10-19T08:28:04;19.38;;;13.98;;
11187;SDS011;5650;52.700;7.306;2023-10-19T08:30:36;18.90;;;14.38;;
11187;SDS011;5650;52.700;7.306;2023-10-19T08:33:07;15.88;;;13.35;;
11187;SDS011;5650;52.700;7.306;2023-10-19T08:35:35;18.42;;;13.00;;
11187;SDS011;5650;52.700;7.306;2023-10-19T08:38:02;14.80;;;13.20;;
11187;SDS011;5650;52.700;7.306;2023-10-19T08:40:36;15.20;;;13.60;;
11187;SDS011;5650;52.700;7.306;2023-10-19T08:43:08;16.17;;;13.05;;
11187;SDS011;5650;52.700;7.306;2023-10-19T08:45:41;16.23;;;13.63;;
11187;SDS011;5650;52.700;7.306;2023-10-19T08:48:13;15.63;;;12.55;;
11187;SDS011;5650;52.700;7.306;2023-10-19T08:50:40;14.07;;;12.68;;
11187;SDS011;5650;52.700;7.306;2023-10-19T08:53:08;16.13;;;13.18;;
11187;SDS011;5650;52.700;7.306;2023-10-19T08:55:38;16.02;;;13.35;;
11187;SDS011;5650;52.700;7.306;2023-10-19T08:58:06;14.95;;;12.50;;
11187;SDS011;5650;52.700;7.306;2023-10-19T09:00:46;15.60;;;12.25;;
11187;SDS011;5650;52.700;7.306;2023-10-19T09:03:15;13.20;;;11.80;;
11187;SDS011;5650;52.700;7.306;2023-10-19T09:05:43;12.70;;;11.38;;
11187;SDS011;5650;52.700;7.306;2023-10-19T09:08:13;12.55;;;10.88;;
11187;SDS011;5650;52.700;7.306;2023-10-19T09:10:45;14.18;;;12.68;;
11187;SDS011;5650;52.700;7.306;2023-10-19T09:13:12;13.93;;;12.43;;
11187;SDS011;5650;52.700;7.306;2023-10-19T09:15:43;13.30;;;11.40;;
11187;SDS011;5650;52.700;7.306;2023-10-19T09:18:14;12.45;;;11.18;;
11187;SDS011;5650;52.700;7.306;2023-10-19T09:20:44;12.48;;;11.25;;
11187;SDS011;5650;52.700;7.306;2023-10-19T09:23:26;10.88;;;9.77;;
11187;SDS011;5650;52.700;7.306;2023-10-19T09:25:56;11.73;;;10.55;;
11187;SDS011;5650;52.700;7.306;2023-10-19T09:28:25;12.68;;;10.65;;
11187;SDS011;5650;52.700;7.306;2023-10-19T09:30:54;11.05;;;9.85;;
11187;SDS011;5650;52.700;7.306;2023-10-19T09:33:23;11.93;;;10.73;;
11187;SDS011;5650;52.700;7.306;2023-10-19T09:35:51;10.63;;;9.52;;
11187;SDS011;5650;52.700;7.306;2023-10-19T09:38:21;11.23;;;10.13;;
11187;SDS011;5650;52.700;7.306;2023-10-19T09:40:50;10.77;;;9.73;;
11187;SDS011;5650;52.700;7.306;2023-10-19T09:43:21;10.30;;;9.35;;
11187;SDS011;5650;52.700;7.306;2023-10-19T09:45:57;10.73;;;9.65;;
11187;SDS011;5650;52.700;7.306;2023-10-19T09:48:32;10.40;;;9.40;;
11187;SDS011;5650;52.700;7.306;2023-10-19T09:51:07;10.13;;;9.18;;
11187;SDS011;5650;52.700;7.306;2023-10-19T09:53:37;10.73;;;9.13;;
11187;SDS011;5650;52.700;7.306;2023-10-19T09:56:06;10.18;;;9.07;;
11187;SDS011;5650;52.700;7.306;2023-10-19T09:58:39;10.02;;;9.13;;
11187;SDS011;5650;52.700;7.306;2023-10-19T10:01:11;9.85;;;8.38;;
11187;SDS011;5650;52.700;7.306;2023-10-19T10:03:43;11.25;;;10.15;;
11187;SDS011;5650;52.700;7.306;2023-10-19T10:06:11;11.82;;;9.63;;
11187;SDS011;5650;52.700;7.306;2023-10-19T10:08:40;11.05;;;9.93;;
11187;SDS011;5650;52.700;7.306;2023-10-19T10:11:21;10.43;;;9.52;;
11187;SDS011;5650;52.700;7.306;2023-10-19T10:13:51;10.90;;;9.90;;
11187;SDS011;5650;52.700;7.306;2023-10-19T10:16:21;10.57;;;8.68;;
11187;SDS011;5650;52.700;7.306;2023-10-19T10:18:53;9.90;;;8.88;;
11187;SDS011;5650;52.700;7.306;2023-10-19T10:21:24;10.93;;;9.98;;
11187;SDS011;5650;52.700;7.306;2023-10-19T10:23:53;10.57;;;9.57;;
11187;SDS011;5650;52.700;7.306;2023-10-19T10:26:22;10.77;;;9.40;;
11187;SDS011;5650;52.700;7.306;2023-10-19T10:31:45;10.93;;;9.85;;
11187;SDS011;5650;52.700;7.306;2023-10-19T10:37:12;10.80;;;9.60;;
11187;SDS011;5650;52.700;7.306;2023-10-19T10:39:40;11.05;;;9.98;;
11187;SDS011;5650;52.700;7.306;2023-10-19T10:42:10;9.98;;;9.07;;
11187;SDS011;5650;52.700;7.306;2023-10-19T10:44:38;13.80;;;12.23;;
11187;SDS011;5650;52.700;7.306;2023-10-19T10:47:06;14.95;;;12.40;;
11187;SDS011;5650;52.700;7.306;2023-10-19T10:49:49;11.32;;;9.90;;
11187;SDS011;5650;52.700;7.306;2023-10-19T10:52:24;12.48;;;11.27;;
11187;SDS011;5650;52.700;7.306;2023-10-19T10:54:57;13.27;;;11.05;;
11187;SDS011;5650;52.700;7.306;2023-10-19T10:57:30;12.65;;;11.25;;
11187;SDS011;5650;52.700;7.306;2023-10-19T11:00:04;14.88;;;13.18;;
11187;SDS011;5650;52.700;7.306;2023-10-19T11:02:34;12.68;;;11.48;;
11187;SDS011;5650;52.700;7.306;2023-10-19T11:05:03;11.95;;;10.88;;
11187;SDS011;5650;52.700;7.306;2023-10-19T11:07:36;12.80;;;11.50;;
11187;SDS011;5650;52.700;7.306;2023-10-19T11:10:04;13.10;;;11.80;;
11187;SDS011;5650;52.700;7.306;2023-10-19T11:12:32;12.05;;;10.88;;
11187;SDS011;5650;52.700;7.306;2023-10-19T11:15:00;13.25;;;11.20;;
11187;SDS011;5650;52.700;7.306;2023-10-19T11:17:41;13.13;;;11.55;;
11187;SDS011;5650;52.700;7.306;2023-10-19T11:20:20;10.60;;;9.70;;
11187;SDS011;5650;52.700;7.306;2023-10-19T11:22:47;11.38;;;10.27;;
11187;SDS011;5650;52.700;7.306;2023-10-19T11:25:19;11.52;;;10.43;;
11187;SDS011;5650;52.700;7.306;2023-10-19T11:27:47;12.63;;;11.40;;
11187;SDS011;5650;52.700;7.306;2023-10-19T11:30:22;12.27;;;11.15;;
11187;SDS011;5650;52.700;7.306;2023-10-19T11:32:50;12.13;;;10.93;;
11187;SDS011;5650;52.700;7.306;2023-10-19T11:35:23;12.57;;;10.88;;
11187;SDS011;5650;52.700;7.306;2023-10-19T11:37:51;12.32;;;11.13;;
11187;SDS011;5650;52.700;7.306;2023-10-19T11:40:20;10.88;;;9.88;;
11187;SDS011;5650;52.700;7.306;2023-10-19T11:42:46;14.23;;;11.20;;
11187;SDS011;5650;52.700;7.306;2023-10-19T11:45:17;11.40;;;10.30;;
11187;SDS011;5650;52.700;7.306;2023-10-19T11:47:44;11.90;;;10.70;;
11187;SDS011;5650;52.700;7.306;2023-10-19T11:50:12;18.00;;;12.55;;
11187;SDS011;5650;52.700;7.306;2023-10-19T11:52:42;14.70;;;13.13;;
11187;SDS011;5650;52.700;7.306;2023-10-19T11:55:11;12.63;;;10.25;;
11187;SDS011;5650;52.700;7.306;2023-10-19T11:57:38;11.73;;;10.63;;
11187;SDS011;5650;52.700;7.306;2023-10-19T12:00:09;12.13;;;10.88;;
11187;SDS011;5650;52.700;7.306;2023-10-19T12:02:39;14.75;;;11.98;;
11187;SDS011;5650;52.700;7.306;2023-10-19T12:05:12;15.57;;;13.10;;
11187;SDS011;5650;52.700;7.306;2023-10-19T12:07:39;14.48;;;13.00;;
11187;SDS011;5650;52.700;7.306;2023-10-19T12:10:10;17.25;;;12.93;;
11187;SDS011;5650;52.700;7.306;2023-10-19T12:12:43;13.50;;;12.10;;
11187;SDS011;5650;52.700;7.306;2023-10-19T12:15:10;12.20;;;10.88;;
11187;SDS011;5650;52.700;7.306;2023-10-19T12:17:38;16.05;;;13.57;;
11187;SDS011;5650;52.700;7.306;2023-10-19T12:20:08;13.50;;;12.20;;
11187;SDS011;5650;52.700;7.306;2023-10-19T12:22:44;16.10;;;13.07;;
11187;SDS011;5650;52.700;7.306;2023-10-19T12:25:14;12.70;;;11.48;;
11187;SDS011;5650;52.700;7.306;2023-10-19T12:27:42;12.32;;;10.85;;
11187;SDS011;5650;52.700;7.306;2023-10-19T12:30:12;12.40;;;10.43;;
11187;SDS011;5650;52.700;7.306;2023-10-19T12:32:48;12.93;;;10.13;;
11187;SDS011;5650;52.700;7.306;2023-10-19T12:35:18;11.43;;;10.23;;
11187;SDS011;5650;52.700;7.306;2023-10-19T12:37:51;12.30;;;11.13;;
11187;SDS011;5650;52.700;7.306;2023-10-19T12:40:18;12.40;;;11.10;;
11187;SDS011;5650;52.700;7.306;2023-10-19T12:42:56;12.43;;;10.73;;
11187;SDS011;5650;52.700;7.306;2023-10-19T12:45:28;15.43;;;13.43;;
11187;SDS011;5650;52.700;7.306;2023-10-19T12:48:02;14.43;;;12.93;;
11187;SDS011;5650;52.700;7.306;2023-10-19T12:50:33;16.17;;;12.48;;
11187;SDS011;5650;52.700;7.306;2023-10-19T12:53:03;14.02;;;11.18;;
11187;SDS011;5650;52.700;7.306;2023-10-19T12:55:31;11.68;;;10.57;;
11187;SDS011;5650;52.700;7.306;2023-10-19T12:57:59;14.93;;;11.10;;
11187;SDS011;5650;52.700;7.306;2023-10-19T13:00:34;13.52;;;11.57;;
11187;SDS011;5650;52.700;7.306;2023-10-19T13:03:08;11.65;;;10.55;;
11187;SDS011;5650;52.700;7.306;2023-10-19T13:05:38;12.32;;;11.02;;
11187;SDS011;5650;52.700;7.306;2023-10-19T13:08:09;12.70;;;10.88;;
11187;SDS011;5650;52.700;7.306;2023-10-19T13:10:46;13.45;;;11.57;;
11187;SDS011;5650;52.700;7.306;2023-10-19T13:13:15;16.88;;;12.10;;
11187;SDS011;5650;52.700;7.306;2023-10-19T13:15:43;14.55;;;12.70;;
11187;SDS011;5650;52.700;7.306;2023-10-19T13:18:13;16.27;;;12.15;;
11187;SDS011;5650;52.700;7.306;2023-10-19T13:20:45;17.55;;;13.05;;
11187;SDS011;5650;52.700;7.306;2023-10-19T13:23:24;15.05;;;12.73;;
11187;SDS011;5650;52.700;7.306;2023-10-19T13:25:51;16.85;;;14.27;;
11187;SDS011;5650;52.700;7.306;2023-10-19T13:28:22;13.90;;;12.55;;
11187;SDS011;5650;52.700;7.306;2023-10-19T13:30:52;15.65;;;13.20;;
11187;SDS011;5650;52.700;7.306;2023-10-19T13:33:20;16.42;;;13.02;;
11187;SDS011;5650;52.700;7.306;2023-10-19T13:35:49;14.48;;;12.57;;
11187;SDS011;5650;52.700;7.306;2023-10-19T13:38:17;15.00;;;13.38;;
11187;SDS011;5650;52.700;7.306;2023-10-19T13:40:47;16.05;;;13.57;;
11187;SDS011;5650;52.700;7.306;2023-10-19T13:43:15;16.42;;;14.13;;
11187;SDS011;5650;52.700;7.306;2023-10-19T13:45:44;17.98;;;13.70;;
11187;SDS011;5650;52.700;7.306;2023-10-19T13:48:13;15.93;;;14.15;;
11187;SDS011;5650;52.700;7.306;2023-10-19T13:50:42;21.83;;;17.13;;
11187;SDS011;5650;52.700;7.306;2023-10-19T13:53:11;17.95;;;15.77;;
11187;SDS011;5650;52.700;7.306;2023-10-19T13:55:38;18.70;;;15.10;;
11187;SDS011;5650;52.700;7.306;2023-10-19T13:58:10;21.77;;;14.82;;
11187;SDS011;5650;52.700;7.306;2023-10-19T14:00:37;17.23;;;15.52;;
11187;SDS011;5650;52.700;7.306;2023-10-19T14:03:11;18.30;;;16.20;;
11187;SDS011;5650;52.700;7.306;2023-10-19T14:05:42;16.90;;;15.13;;
11187;SDS011;5650;52.700;7.306;2023-10-19T14:08:13;17.98;;;16.08;;
11187;SDS011;5650;52.700;7.306;2023-10-19T14:10:41;17.38;;;15.05;;
11187;SDS011;5650;52.700;7.306;2023-10-19T14:13:10;22.88;;;17.65;;
11187;SDS011;5650;52.700;7.306;2023-10-19T14:15:38;17.40;;;15.52;;
11187;SDS011;5650;52.700;7.306;2023-10-19T14:18:07;18.95;;;16.08;;
11187;SDS011;5650;52.700;7.306;2023-10-19T14:20:44;17.95;;;15.50;;
11187;SDS011;5650;52.700;7.306;2023-10-19T14:23:12;20.45;;;15.57;;
11187;SDS011;5650;52.700;7.306;2023-10-19T14:25:45;18.42;;;15.05;;
11187;SDS011;5650;52.700;7.306;2023-10-19T14:28:14;18.42;;;16.45;;
11187;SDS011;5650;52.700;7.306;2023-10-19T14:30:41;17.55;;;15.75;;
11187;SDS011;5650;52.700;7.306;2023-10-19T14:33:08;21.50;;;16.85;;
11187;SDS011;5650;52.700;7.306;2023-10-19T14:35:36;20.42;;;18.23;;
11187;SDS011;5650;52.700;7.306;2023-10-19T14:38:07;19.00;;;16.98;;
11187;SDS011;5650;52.700;7.306;2023-10-19T14:40:34;18.17;;;15.30;;
11187;SDS011;5650;52.700;7.306;2023-10-19T14:43:01;17.98;;;15.93;;
11187;SDS011;5650;52.700;7.306;2023-10-19T14:45:31;18.73;;;15.70;;
11187;SDS011;5650;52.700;7.306;2023-10-19T14:47:58;18.05;;;15.82;;
11187;SDS011;5650;52.700;7.306;2023-10-19T14:50:28;18.80;;;16.85;;
11187;SDS011;5650;52.700;7.306;2023-10-19T14:52:56;17.52;;;15.73;;
11187;SDS011;5650;52.700;7.306;2023-10-19T14:55:23;20.65;;;16.98;;
11187;SDS011;5650;52.700;7.306;2023-10-19T14:57:51;22.23;;;18.80;;
11187;SDS011;5650;52.700;7.306;2023-10-19T15:00:20;20.73;;;18.52;;
11187;SDS011;5650;52.700;7.306;2023-10-19T15:02:53;27.33;;;18.23;;
11187;SDS011;5650;52.700;7.306;2023-10-19T15:05:26;22.00;;;19.00;;